Current Conditions

Updated: 12-Dec-2017 01:55 AM  
Summary / Temperature Wind Rain






Feels like: 36°F

1-hour difference
3.6°F 3.6°F colder than last hour.

24-hour difference
5.0°F5.0°F colder than yesterday at this time.

  Today Yesterday
High: 40.2°F
12:39 AM
63.6°F
1:56 PM
Low: 35.8°F
1:54 AM
32.0°F
5:27 AM
Calm SE
0.0
Gust:  0.0 mph
0 Beaufort - Calm

Today: 2.3 - 12:18 AM
Month: 7.0 mph - Dec 4
Rain Today: 0.00 in
Current Rate (/hr): 0.000 in
Max Rate (/hr):
Rain Yesterday: 0.00 in
Storm Rain: 0.00 in
This Month: 0.02 in
Season Total: 0.68 in
Last Rain Event: 7 days ago
Humidity / Barometer Sun / Moon
Humidity: 87 Increased 1.0% in the last hour.
Dew Point: 32.3°F Decreased 3.2°F in the last hour.
Barometer: 30.364 inHg  
Baro Trend: Steady
Sunrise: 6:58 AM
Sunset: 4:42 PM
Moonrise: 1:39 AM
Moonset: 1:39 PM
Sky Conditions UV Index
Summary: Mist, Clear
Visibility: ¾ mile
Clouds: None
KVIS - 1:39 AM PST
Current: 0.0  None 
Tuesday: 2.0  Low 
Wednesday: 1.8  Low 
Air Quality Fire Danger
 Unhealthy for Sensitive Groups 
Ozone 2 ppb
PM 2.5 54 μg/m3
1:50 AM PST
Current: 0  Low 

Local Alerts Local Forecast
Local NWS Alerts
Today

Hazy

High 63
Tonight

Hazy

Low 34
Wed

Hazy

High 64
Wed night

Hazy

Low 35
Thu

Hazy

High 65
Thu night

Hazy

Low 37
Fri

Mostly
Sunny
High 66

Local Radar Local Satellite Neighborhood Cam Sky Cam
Local Radar Local Satellite Neighborhood Cam Sky Cam


Nearby Personal Stations

Weather Underground PWS KCAEXETE7     Weather Underground PWS KCAEXETE6     Weather Underground PWS KCAEXETE11

Nearby Airport Stations

KVIS - Visalia, California, USA
Distance from station: W 14mi, 23km
Updated: Tue, 12-Dec-2017 1:53am PST
Mist, Clear
Mist, Clear
 Wind from calm
Wind: Calm
Temperature: 34°F , 1°C
Dew Point: 30°F , -1°C
Humidity: 87%
Barometer: 30.36 inHg , 1028.1 hPa
Summary: Mist
Clouds: Clear
Visibility: 3/4 mile , 5 km
2017/12/12 09:53 KVIS 120953Z AUTO 00000KT 3/4SM BR CLR 01/M01 A3036 RMK AO2 VIS 1/4V2 FZRANO
KPTV - Porterville, California, USA
Distance from station: SSE 19mi, 31km
Updated: Tue, 12-Dec-2017 12:56am PST
Haze, Clear
Haze, Clear
 Wind from calm
Wind: Calm
Temperature: 37°F , 3°C
Dew Point: 30°F , -1°C
Humidity: 75%
Barometer: 30.36 inHg , 1028.1 hPa
Summary: Haze
Clouds: Clear
Visibility: 5 miles , 8 km
2017/12/12 08:56 KPTV 120856Z AUTO 00000KT 5SM HZ CLR 03/M01 A3036 RMK AO2 SLP296 T00281011 51000

Metar display script from Saratoga-Weather.org



Visitor Map